Weather reports worldwide

Advertisment
Kleiner Feldberg/Taunus, Germany (10635): temperature & dewpoint: 13.01.2021 06:00:00 - 19.01.2021 06:00:00 (CET)Kleiner Feldberg/Taunus, Germany (10635): temperature 5cm & temperature -5cm: 13.01.2021 06:00:00 - 19.01.2021 06:00:00 (CET)Kleiner Feldberg/Taunus, Germany (10635): temperature -20cm & temperature -100cm: 13.01.2021 06:00:00 - 19.01.2021 06:00:00 (CET)Kleiner Feldberg/Taunus, Germany (10635): wind speed & gusts: 13.01.2021 06:00:00 - 19.01.2021 06:00:00 (CET)Kleiner Feldberg/Taunus, Germany (10635): wind direction: 13.01.2021 06:00:00 - 19.01.2021 06:00:00 (CET)Kleiner Feldberg/Taunus, Germany (10635): visibility: 13.01.2021 06:00:00 - 19.01.2021 06:00:00 (CET)Kleiner Feldberg/Taunus, Germany (10635): sunshine duration: 13.01.2021 06:00:00 - 19.01.2021 06:00:00 (CET)Kleiner Feldberg/Taunus, Germany (10635): precipitation: 13.01.2021 06:00:00 - 19.01.2021 06:00:00 (CET)
Date & Time tt [°C] td [°C] tt 5cm [°C] tt -5cm [°C] tt -20cm [°C] tt -100cm [°C] ff [km/h] ff [kn] fx [km/h] fx [kn] dd vv [km] sd [min] rr [mm]
19.01.2021 06:00:00 -2,6 -3,0 -0,1 0,2 0,8 3,0 22 12 44 24 SW 0,1 0 0,0
19.01.2021 05:00:00 -2,5 -2,9 -0,1 0,2 0,8 3,0 24 13 45 24 SW 0,1 0 0,0
19.01.2021 04:00:00 -2,2 -2,6 -0,1 0,2 0,8 3,0 19 10 41 22 WSW 0,1 0 0,0
19.01.2021 03:00:00 -1,8 -2,1 -0,1 0,2 0,8 3,0 19 11 53 28 WSW 0,1 0 0,0
19.01.2021 02:00:00 -1,5 -1,8 -0,1 0,2 0,8 3,0 20 11 42 23 WSW 0,1 0 0,0
19.01.2021 01:00:00 -1,2 -1,3 -0,1 0,2 0,8 3,0 18 10 41 22 W 0,1 0 0,1
19.01.2021 00:00:00 -1,4 -1,5 -0,1 0,2 0,8 3,0 16 9 39 21 WSW 0,1 0 0,0
18.01.2021 23:00:00 -1,5 -1,7 -0,1 0,2 0,8 3,0 18 10 38 21 WSW 0,1 0 0,0
18.01.2021 22:00:00 -1,6 -1,8 -0,1 0,2 0,9 3,0 17 9 35 19 W 0,1 0 0,0
18.01.2021 21:00:00 -1,7 -1,9 -0,1 0,2 0,9 3,0 16 8 36 19 W 0,1 0 0,0
18.01.2021 20:00:00 -1,7 -2,0 -0,1 0,2 0,9 3,0 14 8 36 19 W 0,1 0 0,0
18.01.2021 19:00:00 -1,7 -2,0 -0,1 0,2 0,9 3,0 16 9 36 20 W 0,2 0 0,0
18.01.2021 18:00:00 -1,7 -2,0 -0,1 0,2 0,9 3,0 13 7 36 19 W 7 0 0,0
18.01.2021 17:00:00 -1,6 -2,0 -0,1 0,2 0,9 3,0 15 8 38 21 W 14 0 0,0
18.01.2021 16:00:00 -1,3 -1,6 -0,1 0,2 0,9 3,0 13 7 30 16 W 0,3 0 0,0
18.01.2021 15:00:00 -1,2 -1,6 -0,1 0,2 0,9 3,0 12 6 35 19 W 0,1 0 0,0
18.01.2021 14:00:00 -1,2 -1,8 -0,1 0,2 0,9 3,0 15 8 37 20 W 0,2 0 0,0
18.01.2021 13:00:00 -1,3 -1,8 -0,1 0,2 0,9 3,0 14 7 31 17 W 0,1 0 0,0
18.01.2021 12:00:00 -1,5 -2,0 -0,1 0,2 0,9 3,0 16 8 37 20 W 0,1 0 0,1
18.01.2021 11:00:00 -1,8 -2,0 -0,1 0,2 0,9 3,0 11 6 32 18 W 0,1 0 0,0
18.01.2021 10:00:00 -2,0 -2,4 -0,1 0,2 0,9 3,0 11 6 27 15 W 0,1 0 0,0
18.01.2021 09:00:00 -2,0 -2,3 -0,1 0,2 0,9 3,0 10 5 27 14 WNW 0,1 0 0,0
18.01.2021 08:00:00 -1,9 -2,2 -0,1 0,2 0,9 3,0 11 6 27 14 WNW 0,1 0 0,0
18.01.2021 07:00:00 -1,9 -2,2 -0,1 0,2 0,9 3,0 15 8 33 18 WNW 0,1 0 0,0
18.01.2021 06:00:00 -1,8 -2,1 -0,1 0,2 0,9 3,0 16 9 32 17 WNW 0,1 0 0,0
18.01.2021 05:00:00 -1,7 -1,9 -0,2 0,2 0,9 3,0 17 9 40 22 NW 0,1 0 0,2
18.01.2021 04:00:00 -1,7 -1,9 -0,2 0,2 0,9 3,0 16 9 31 17 NW 0,1 0 0,4
18.01.2021 03:00:00 -1,6 -1,8 -0,2 0,2 0,9 3,0 15 8 32 18 NW 0,1 0 0,0
18.01.2021 02:00:00 -1,4 -1,6 -0,2 0,2 0,9 3,0 14 8 29 16 WNW 0,1 0 0,0
18.01.2021 01:00:00 -1,2 -1,3 -0,2 0,2 0,9 3,0 14 8 29 15 WNW 0,1 0 0,0
18.01.2021 00:00:00 -1,2 -1,3 -0,2 0,2 0,9 3,0 15 8 30 16 NW 0,1 0 0,1
17.01.2021 23:00:00 -1,4 -1,7 -0,2 0,2 0,9 3,0 14 8 29 16 WNW 0,1 0 0,5
17.01.2021 22:00:00 -1,4 -1,5 -0,2 0,2 0,9 3,0 13 7 24 13 NW 0,1 0 0,0
17.01.2021 21:00:00 -1,5 -1,7 -0,2 0,2 0,9 3,0 12 6 25 14 NW 0,1 0 0,0
17.01.2021 20:00:00 -1,4 -1,4 -0,2 0,2 0,9 3,0 13 7 31 17 NW 0,1 0 0,0
17.01.2021 19:00:00 -1,9 -2,0 -0,2 0,2 0,9 3,0 12 7 26 14 NW 0,1 0 0,0
17.01.2021 18:00:00 -2,3 -2,5 -0,2 0,2 0,9 3,0 10 6 27 15 NNW 0,1 0 0,0
17.01.2021 17:00:00 -2,6 -2,9 -0,2 0,2 0,9 3,0 10 6 32 17 NW 0,1 0 0,0
17.01.2021 16:00:00 -2,9 -3,3 -0,2 0,2 0,9 3,0 10 5 22 12 NW 0,1 0 0,0
17.01.2021 15:00:00 -3,3 -3,9 -0,3 0,2 0,9 3,0 8 5 21 11 NW 0,1 0 0,0
17.01.2021 14:00:00 -3,0 -3,9 -0,2 0,2 0,9 3,0 12 7 22 12 WNW 9 2 0,0
17.01.2021 13:00:00 -3,5 -4,7 -0,2 0,2 0,9 3,0 6 4 11 6 WNW 2,8 0 0,1
17.01.2021 12:00:00 -3,6 -4,9 -0,2 0,2 0,9 3,0 5 3 10 6 WNW 0,2 0 0,0
17.01.2021 11:00:00 -4,1 -4,5 -0,3 0,2 0,9 3,0 5 3 11 6 WNW 3,0 0 0,0
17.01.2021 10:00:00 -5,1 -5,9 -0,2 0,2 0,9 3,0 5 3 9 5 W 3,5 0 0,0
17.01.2021 09:00:00 -5,7 -6,4 -0,2 0,2 0,9 3,0 5 3 11 6 WNW 0,7 0 0,0
17.01.2021 08:00:00 -5,8 -6,5 -0,2 0,2 0,9 3,0 3 2 13 7 NW 4,6 0 0,1
17.01.2021 07:00:00 -5,9 -6,2 -0,2 0,2 0,9 3,0 7 4 15 8 W 0,2 0 0,0
17.01.2021 06:00:00 -6,3 -6,9 -0,2 0,2 0,9 3,0 6 4 14 8 W 0,2 0 0,0
17.01.2021 05:00:00 -6,5 -7,1 -0,2 0,2 0,9 3,0 7 4 20 11 WSW 0,1 0 0,0
17.01.2021 04:00:00 -6,7 -7,4 -0,2 0,2 0,9 3,0 9 5 18 10 SSW 0,1 0 0,0
17.01.2021 03:00:00 -6,8 -7,5 -0,2 0,2 0,9 3,0 9 5 21 11 S 0,3 0 0,3
17.01.2021 02:00:00 -6,9 -7,6 -0,2 0,2 0,9 3,0 13 7 26 14 SSW 0,6 0 0,5
17.01.2021 01:00:00 -7,1 -7,8 -0,2 0,2 0,9 3,0 14 8 29 16 SW 1,4 0 0,4
17.01.2021 00:00:00 -7,2 -8,1 -0,2 0,2 0,9 3,1 16 9 34 18 SW 1,0 0 0,5
16.01.2021 23:00:00 -6,9 -7,9 -0,2 0,2 0,9 3,1 17 9 31 17 SW 0,2 0 0,6
16.01.2021 22:00:00 -6,5 -7,0 -0,2 0,2 0,9 3,1 17 9 33 18 SSW 0,3 0 0,0
16.01.2021 21:00:00 -6,8 -7,3 -0,2 0,2 0,9 3,1 15 8 29 16 SSW 0,6 0 0,0
16.01.2021 20:00:00 -7,1 -7,6 -0,2 0,2 0,9 3,1 16 9 29 15 S 8 0 0,0
16.01.2021 19:00:00 -7,5 -8,5 -0,2 0,2 0,9 3,1 15 8 23 12 SSW 29 0 0,0
16.01.2021 18:00:00 -7,4 -8,8 -0,2 0,2 0,9 3,1 10 6 19 11 SSW 35 0 0,0
16.01.2021 17:00:00 -7,1 -8,5 -0,2 0,2 0,9 3,1 9 5 18 10 SW 35 0 0,0
16.01.2021 16:00:00 -6,8 -8,4 -0,2 0,2 0,9 3,1 7 4 16 9 SW 29 0 0,0
16.01.2021 15:00:00 -6,5 -8,4 -0,2 0,2 0,9 3,1 5 3 14 7 SSW 26 0 0,0
16.01.2021 14:00:00 -6,4 -8,7 -0,3 0,2 0,9 3,1 5 3 12 6 SW 39 0 0,0
16.01.2021 13:00:00 -6,1 -8,0 -0,2 0,2 0,9 3,1 5 3 7 4 WSW 36 0 0,0
16.01.2021 12:00:00 -7,0 -9,5 -0,2 0,2 0,9 3,1 5 3 10 6 WSW 50 0 0,0
16.01.2021 11:00:00 -6,7 -8,1 -0,2 0,2 0,9 3,1 0 0 5 3 N 25 0 0,0
16.01.2021 10:00:00 -7,3 -8,4 -0,2 0,2 0,9 3,1 4 2 12 6 N 38 0 0,0
16.01.2021 09:00:00 -7,6 -8,8 -0,2 0,2 0,9 3,1 6 3 19 10 N 11 0 0,0
16.01.2021 08:00:00 -7,5 -8,8 -0,2 0,2 0,9 3,1 10 5 22 12 N 29 0 0,0
16.01.2021 07:00:00 -7,3 -8,5 -0,2 0,2 0,9 3,1 9 5 22 12 N 22 0 0,0
16.01.2021 06:00:00 -6,9 -8,0 -0,2 0,2 0,9 3,1 6 3 16 8 NNW 14 0 0,0
16.01.2021 05:00:00 -6,7 -7,8 -0,2 0,2 0,9 3,1 6 3 14 8 NNW 9 0 0,0
16.01.2021 04:00:00 -6,4 -7,4 -0,2 0,2 0,9 3,1 5 3 18 10 NW 5 0 0,0
16.01.2021 03:00:00 -5,9 -6,8 -0,2 0,2 0,9 3,1 6 4 19 10 NW 1,1 0 0,0
16.01.2021 02:00:00 -5,6 -6,4 -0,2 0,2 0,9 3,1 6 4 18 10 NW 0,6 0 0,0
16.01.2021 01:00:00 -5,3 -6,0 -0,2 0,2 0,9 3,1 6 4 16 9 WNW 0,2 0 0,0
16.01.2021 00:00:00 -5,2 -5,8 -0,2 0,2 0,9 3,1 8 4 16 9 NW 0,2 0 0,0
15.01.2021 23:00:00 -5,1 -5,6 -0,2 0,2 0,9 3,1 8 4 21 11 NW 0,2 0 0,0
15.01.2021 22:00:00 -5,2 -5,8 -0,2 0,2 0,9 3,1 6 4 14 8 NW 1,1 0 0,0
15.01.2021 21:00:00 -5,2 -5,9 -0,2 0,2 0,9 3,1 6 3 16 9 NW 3,5 0 0,0
15.01.2021 20:00:00 -5,1 -5,8 -0,2 0,2 0,9 3,1 5 3 21 11 NNW 11 0 0,0
15.01.2021 19:00:00 -4,9 -5,5 -0,2 0,2 0,9 3,1 8 4 21 11 NNW 7 0 0,0
15.01.2021 18:00:00 -4,6 -5,1 -0,2 0,2 0,9 3,1 7 4 20 11 NNW 2,2 0 0,0
15.01.2021 17:00:00 -4,5 -5,0 -0,2 0,2 0,9 3,1 10 6 22 12 N 0,9 0 0,0
15.01.2021 16:00:00 -4,5 -5,0 -0,2 0,2 0,9 3,1 8 4 24 13 NNW 0,2 0 0,0
15.01.2021 15:00:00 -4,4 -5,0 -0,2 0,2 0,9 3,1 10 5 23 12 N 0,1 0 0,0
15.01.2021 14:00:00 -4,4 -5,1 -0,2 0,2 0,9 3,1 16 9 32 17 N 0,1 0 0,0
15.01.2021 13:00:00 -4,5 -5,1 -0,2 0,2 0,9 3,1 16 9 27 15 NNE 0,1 0 0,0
15.01.2021 12:00:00 -4,9 -5,5 -0,2 0,2 0,9 3,1 16 9 30 16 NNE 0,1 0 0,0
15.01.2021 11:00:00 -5,6 -6,3 -0,2 0,2 0,9 3,1 15 8 27 14 NNE 0,2 0 0,0
15.01.2021 10:00:00 -6,2 -6,9 -0,2 0,2 0,9 3,1 16 9 32 17 NNE 0,4 1 0,0
15.01.2021 09:00:00 -6,3 -7,7 -0,2 0,2 0,9 3,1 19 11 31 17 NNE 39 0 0,0
15.01.2021 08:00:00 -6,2 -7,5 -0,2 0,2 0,9 3,1 16 9 31 17 NE 26 0 0,0
15.01.2021 07:00:00 -6,0 -7,1 -0,2 0,2 0,9 3,1 15 8 28 15 NE 25 0 0,0
15.01.2021 06:00:00 -5,7 -6,7 -0,2 0,2 0,9 3,1 13 7 28 15 NE 30 0 0,0
15.01.2021 05:00:00 -6,0 -7,1 -0,2 0,2 0,9 3,1 14 8 27 14 E 41 0 0,0
15.01.2021 04:00:00 -6,2 -7,5 -0,2 0,2 0,9 3,1 15 8 32 18 E 58 0 0,0
15.01.2021 03:00:00 -6,3 -7,6 -0,2 0,2 0,9 3,1 19 11 33 18 E 54 0 0,0
15.01.2021 02:00:00 -6,1 -7,2 -0,2 0,2 0,9 3,1 22 12 36 20 E 62 0 0,0
15.01.2021 01:00:00 -6,0 -7,2 -0,2 0,2 0,9 3,1 23 12 39 21 E 43 0 0,0
15.01.2021 00:00:00 -5,7 -6,7 -0,2 0,2 0,9 3,1 24 13 39 21 E 42 0 0,0
14.01.2021 23:00:00 -5,9 -6,9 -0,2 0,2 0,9 3,1 26 14 41 22 ESE 40 0 0,0
14.01.2021 22:00:00 -5,6 -6,6 -0,2 0,2 0,9 3,1 23 13 39 21 E 38 0 0,0
14.01.2021 21:00:00 -5,5 -6,4 -0,2 0,2 0,9 3,1 27 14 40 21 ESE 36 0 0,0
14.01.2021 20:00:00 -5,4 -6,2 -0,2 0,2 0,9 3,1 23 12 37 20 ESE 24 0 0,0
14.01.2021 19:00:00 -5,2 -5,9 -0,2 0,2 0,9 3,1 24 13 36 19 E 19 0 0,0
14.01.2021 18:00:00 -5,0 -5,6 -0,2 0,2 0,9 3,1 21 12 31 17 E 12 0 0,0
14.01.2021 17:00:00 -4,8 -5,3 -0,2 0,2 0,9 3,1 21 12 32 17 E 2,2 0 0,0
14.01.2021 16:00:00 -4,7 -5,5 -0,2 0,2 0,9 3,1 17 9 25 13 E 13 0 0,0
14.01.2021 15:00:00 -4,4 -5,6 -0,2 0,2 0,9 3,1 11 6 21 11 E 26 0 0,0
14.01.2021 14:00:00 -4,2 -5,6 -0,2 0,2 0,9 3,1 7 4 14 7 ESE 35 0 0,0
14.01.2021 13:00:00 -4,4 -5,8 -0,2 0,2 0,9 3,1 9 5 16 9 E 32 0 0,0
14.01.2021 12:00:00 -4,1 -5,3 -0,2 0,2 0,9 3,1 5 3 18 10 E 38 0 0,0
14.01.2021 11:00:00 -4,8 -5,9 -0,2 0,2 0,9 3,1 6 4 21 11 N 30 0 0,0
14.01.2021 10:00:00 -5,1 -6,0 -0,2 0,2 0,9 3,1 11 6 24 13 N 30 0 0,0
14.01.2021 09:00:00 -4,9 -5,5 -0,2 0,2 0,9 3,1 11 6 24 13 NNW 18 0 0,0
14.01.2021 08:00:00 -5,0 -5,8 -0,2 0,2 0,9 3,1 11 6 26 14 NNW 32 0 0,0
14.01.2021 07:00:00 -4,8 -5,6 -0,2 0,2 0,9 3,1 12 7 29 16 NNW 35 0 0,0
14.01.2021 06:00:00 -4,6 -5,4 -0,2 0,2 0,9 3,1 11 6 28 15 NNW 36 0 0,0
14.01.2021 05:00:00 -4,3 -5,0 -0,2 0,2 0,9 3,1 10 6 30 16 NW 27 0 0,0
14.01.2021 04:00:00 -4,3 -5,4 -0,3 0,2 0,9 3,1 15 8 40 21 NW 36 0 0,0
14.01.2021 03:00:00 -2,8 -3,5 -0,3 0,2 0,9 3,1 14 8 38 20 NNW 9 0 0,0
14.01.2021 02:00:00 -2,0 -2,3 -0,2 0,2 0,9 3,1 19 10 46 25 NW 0,1 0 0,1
14.01.2021 01:00:00 -2,1 -2,3 -0,3 0,2 0,9 3,1 16 9 41 22 NW 0,1 0 0,1
14.01.2021 00:00:00 -2,4 -2,6 -0,2 0,2 0,9 3,1 16 8 39 21 NW 0,1 0 0,0
13.01.2021 23:00:00 -2,5 -2,8 -0,2 0,2 0,9 3,1 18 10 40 21 NW 0,1 0 0,0
13.01.2021 22:00:00 -2,7 -3,0 -0,2 0,2 0,9 3,2 15 8 36 19 NW 0,2 0 0,0
13.01.2021 21:00:00 -2,9 -3,2 -0,2 0,2 0,9 3,2 14 8 33 18 WNW 0,2 0 0,0
13.01.2021 20:00:00 -3,0 -3,3 -0,2 0,2 0,9 3,2 13 7 31 17 WNW 0,7 0 0,0
13.01.2021 19:00:00 -3,1 -3,4 -0,2 0,2 0,9 3,2 15 8 32 18 W 1,5 0 0,0
13.01.2021 18:00:00 -3,3 -3,8 -0,1 0,2 0,9 3,2 16 8 34 18 W 14 0 0,0
13.01.2021 17:00:00 -3,3 -4,0 -0,2 0,2 0,9 3,2 15 8 31 17 W 27 0 0,0
13.01.2021 16:00:00 -2,9 -3,8 -0,2 0,2 0,9 3,2 14 8 40 21 W 36 3 0,0
13.01.2021 15:00:00 -2,7 -3,5 -0,2 0,2 0,9 3,2 15 8 40 21 W 28 1 0,0
13.01.2021 14:00:00 -2,6 -3,6 -0,2 0,2 0,9 3,2 15 8 39 21 W 27 0 0,0
13.01.2021 13:00:00 -2,4 -3,2 -0,2 0,2 0,9 3,2 15 8 41 22 W 27 0 0,0
13.01.2021 12:00:00 -2,6 -3,1 -0,2 0,2 0,9 3,2 15 8 37 20 W 12 0 0,0
13.01.2021 11:00:00 -2,7 -3,1 -0,1 0,2 0,9 3,2 16 9 36 20 W 0,6 0 0,0
13.01.2021 10:00:00 -3,2 -3,6 -0,1 0,2 0,9 3,2 15 8 35 19 WNW 0,9 0 0,0
13.01.2021 09:00:00 -3,5 -3,8 -0,1 0,2 0,9 3,2 14 8 33 18 WNW 0,3 0 0,0
13.01.2021 08:00:00 -3,6 -4,0 -0,1 0,2 0,9 3,2 14 8 32 17 WNW 0,4 0 0,0
13.01.2021 07:00:00 -3,5 -4,0 -0,1 0,2 0,9 3,2 16 8 34 19 NW 1,5 0 0,0
13.01.2021 06:00:00 -3,4 -3,9 -0,1 0,2 0,9 3,2 16 9 34 19 WNW 0,5 0 0,0

tt = temperature
td = dewpoint
tt 5cm = temperature 5cm
tt -5cm = temperature -5cm
tt -20cm = temperature -20cm
tt -100cm = temperature -100cm
ff = wind speed
fx = gusts
dd = wind direction
vv = visibility
sd = sunshine duration
rr = precipitation

Next stations